Basking Ridge, New Jersey
Current Conditions -  °F | °C
As of 4:53 AM on Sunday 21 Dec 2014 (Local Time) from KSMQ Reporting Station
Overcast Overcast  
Wind Chill: 32°   Ceiling: 2600
Heat Index: 32°   Visibility: 10mi
Dew Point: 22°   Wind: 3mph
Humidity: 66%   Direction: 320°NW
Pressure: 30.26"   Gusts: NA
Location:  40.71°N, 74.55°W
Report Text: KSMQ 210953Z AUTO 32003KT 10SM OVC026 00/M06 A3026 RMK AO2 SLP250 T00001056
Loading
Personal Weather Stations






























Interactive Weather Map New forecast layout! Learn more

10-Day Weather Forecast

Advertisements
Track Severe Weather on mobile